Time;durP1;ratioP1;P1;durP2;ratioP2;P2;SDS_P1;SDS_P2;PMS_P1;PMS_P2;Temp;Humidity;BMP_temperature;BMP_pressure;BME280_temperature;BME280_humidity;BME280_pressure;Samples;Min_cycle;Max_cycle;Signal;HPM_P1;HPM_P2
2023/01/30 00:01:17;;;;;;;22.77;14.30;;;;;;;;;;5031971;28;20506;-85
2023/01/30 00:03:43;;;;;;;24.15;14.95;;;;;;;;;;5031898;28;20115;-85
2023/01/30 00:06:08;;;;;;;22.48;14.43;;;;;;;;;;5033857;28;20037;-86
2023/01/30 00:08:33;;;;;;;22.88;14.55;;;;;;;;;;5033678;28;20128;-85
2023/01/30 00:11:02;;;;;;;23.83;15.13;;;;;;;;;;5021095;28;20042;-86
2023/01/30 00:13:27;;;;;;;24.17;14.13;;;;;;;;;;5032038;28;20037;-85
2023/01/30 00:15:52;;;;;;;25.23;14.87;;;;;;;;;;5034081;28;20516;-86
2023/01/30 00:18:18;;;;;;;21.63;13.97;;;;;;;;;;5014517;28;20036;-85
2023/01/30 00:20:43;;;;;;;23.70;15.20;;;;;;;;;;5013052;28;20646;-85
2023/01/30 00:23:08;;;;;;;20.70;13.33;;;;;;;;;;5029292;28;20033;-85
2023/01/30 00:25:33;;;;;;;21.57;13.77;;;;;;;;;;5031834;28;20029;-86
2023/01/30 00:27:59;;;;;;;21.87;14.03;;;;;;;;;;5034121;28;20037;-85
2023/01/30 00:30:25;;;;;;;23.20;14.75;;;;;;;;;;5031312;28;20273;-85
2023/01/30 00:32:54;;;;;;;26.17;15.63;;;;;;;;;;5034217;28;20209;-85
2023/01/30 00:35:19;;;;;;;23.20;14.50;;;;;;;;;;5033339;28;20037;-85
2023/01/30 00:37:44;;;;;;;25.13;15.07;;;;;;;;;;5032926;28;20033;-86
2023/01/30 00:40:10;;;;;;;23.93;13.90;;;;;;;;;;5033431;28;20499;-84
2023/01/30 00:48:03;;;;;;;22.80;14.57;;;;;;;22.39;100.00;159927.88;5036213;28;20091;-85
2023/01/30 00:50:41;;;;;;;27.80;15.77;;;;;;;;;;5036047;28;20446;-86
2023/01/30 00:53:06;;;;;;;26.15;15.98;;;;;;;;;;5033661;28;20068;-85
2023/01/30 00:55:31;;;;;;;24.13;14.98;;;;;;;;;;5033399;28;20037;-85
2023/01/30 00:57:57;;;;;;;25.43;15.03;;;;;;;;;;5034890;28;20045;-86
2023/01/30 01:00:22;;;;;;;25.80;15.57;;;;;;;;;;5034185;28;20056;-86
2023/01/30 01:02:47;;;;;;;26.02;15.05;;;;;;;;;;5036118;28;20520;-85
2023/01/30 01:05:12;;;;;;;25.10;14.57;;;;;;;;;;5041824;28;20087;-86
2023/01/30 01:07:38;;;;;;;25.80;15.60;;;;;;;;;;5040252;28;20280;-86
2023/01/30 01:10:04;;;;;;;25.08;15.00;;;;;;;;;;5038422;28;20915;-85
2023/01/30 01:12:29;;;;;;;27.13;17.00;;;;;;;;;;5039037;28;20038;-85
2023/01/30 01:14:54;;;;;;;26.27;16.35;;;;;;;;;;5032805;28;20037;-85
2023/01/30 01:17:19;;;;;;;28.70;16.57;;;;;;;;;;5030928;28;20116;-85
2023/01/30 01:19:44;;;;;;;27.67;15.67;;;;;;;;;;5031957;28;20041;-85
2023/01/30 01:22:09;;;;;;;24.90;15.13;;;;;;;;;;5032432;28;20292;-85
2023/01/30 01:24:35;;;;;;;26.20;15.40;;;;;;;;;;5030610;28;20041;-85
2023/01/30 01:27:00;;;;;;;26.08;15.60;;;;;;;;;;5037285;28;20041;-84
2023/01/30 01:29:25;;;;;;;24.90;15.53;;;;;;;;;;5031769;28;20044;-85
2023/01/30 01:31:50;;;;;;;23.87;14.63;;;;;;;;;;5039848;28;20835;-85
2023/01/30 01:34:15;;;;;;;26.02;15.05;;;;;;;;;;5019093;28;20372;-85
2023/01/30 01:36:41;;;;;;;25.17;14.93;;;;;;;;;;5028257;28;20064;-85
2023/01/30 01:39:06;;;;;;;24.73;15.13;;;;;;;;;;5029931;28;20037;-86
2023/01/30 01:41:31;;;;;;;24.10;14.60;;;;;;;;;;5030608;28;20029;-85
2023/01/30 01:44:00;;;;;;;25.13;15.20;;;;;;;;;;5043662;28;20528;-86
2023/01/30 01:46:30;;;;;;;28.08;14.43;;;;;;;;;;5033346;28;20037;-86
2023/01/30 01:48:58;;;;;;;28.17;16.42;;;;;;;;;;5025392;28;20041;-85
2023/01/30 01:51:30;;;;;;;26.23;15.38;;;;;;;;;;5029961;28;20538;-84
2023/01/30 01:53:59;;;;;;;25.73;14.70;;;;;;;;;;5025388;28;20050;-85
2023/01/30 01:56:24;;;;;;;24.23;14.32;;;;;;;;;;5029902;28;20095;-84
2023/01/30 01:58:51;;;;;;;25.13;14.87;;;;;;;;;;5028802;28;20152;-83
2023/01/30 02:01:16;;;;;;;26.50;15.48;;;;;;;;;;5030237;28;20042;-85
2023/01/30 02:03:44;;;;;;;24.05;14.60;;;;;;;;;;5017723;28;20144;-85
2023/01/30 02:06:10;;;;;;;26.48;15.70;;;;;;;;;;5030123;28;20044;-84
2023/01/30 02:08:37;;;;;;;25.13;15.43;;;;;;;;;;5035607;28;20091;-86
2023/01/30 02:11:02;;;;;;;26.70;15.15;;;;;;;;;;5023604;28;20057;-84
2023/01/30 02:13:28;;;;;;;26.52;15.48;;;;;;;;;;5029049;28;20924;-85
2023/01/30 02:15:54;;;;;;;25.27;15.88;;;;;;;;;;5029563;28;20104;-86
2023/01/30 02:18:20;;;;;;;25.33;15.10;;;;;;;;;;5028301;28;20051;-86
2023/01/30 02:21:03;;;;;;;24.65;14.35;;;;;;;;;;5035674;28;20585;-86
2023/01/30 02:23:34;;;;;;;24.70;14.45;;;;;;;;;;5032938;28;20092;-85
2023/01/30 02:26:12;;;;;;;24.35;14.43;;;;;;;;;;5031225;28;20138;-85
2023/01/30 02:28:56;;;;;;;26.35;14.98;;;;;;;;;;5023528;28;20043;-85
2023/01/30 02:31:24;;;;;;;23.50;14.65;;;;;;;;;;5043325;28;20072;-85
2023/01/30 02:33:54;;;;;;;24.98;15.35;;;;;;;;;;5033954;28;20078;-85
2023/01/30 02:36:26;;;;;;;24.40;14.73;;;;;;;;;;5029734;28;20495;-84
2023/01/30 02:39:03;;;;;;;24.58;14.68;;;;;;;;;;5033258;28;20092;-85
2023/01/30 02:41:40;;;;;;;26.17;14.18;;;;;;;;;;5040423;28;20422;-86
2023/01/30 02:44:10;;;;;;;23.60;13.82;;;;;;;;;;5022559;28;20042;-85
2023/01/30 02:46:54;;;;;;;23.83;14.97;;;;;;;;;;5033889;28;20064;-85
2023/01/30 02:49:22;;;;;;;22.73;13.88;;;;;;;;;;5040457;28;20030;-86
2023/01/30 02:51:49;;;;;;;22.70;13.25;;;;;;;;;;5030607;28;20025;-85
2023/01/30 02:54:14;;;;;;;21.25;12.75;;;;;;;;;;5038230;28;20048;-85
2023/01/30 02:56:47;;;;;;;23.58;14.20;;;;;;;;;;5032262;28;20443;-86
2023/01/30 02:59:14;;;;;;;21.00;13.18;;;;;;;;;;5036137;28;20090;-85
2023/01/30 03:02:06;;;;;;;22.13;13.07;;;;;;;;;;5036747;28;20120;-84
2023/01/30 03:04:31;;;;;;;24.20;13.73;;;;;;;;;;5027317;28;20029;-86
2023/01/30 03:07:03;;;;;;;24.17;13.57;;;;;;;;;;5037025;28;20053;-86
2023/01/30 03:09:50;;;;;;;26.85;15.75;;;;;;;;;;5045538;28;20299;-86
2023/01/30 03:12:50;;;;;;;22.90;13.38;;;;;;;;;;5043304;28;20447;-83
2023/01/30 03:15:29;;;;;;;23.33;13.90;;;;;;;;;;5009045;28;20049;-84
2023/01/30 03:17:54;;;;;;;23.58;14.00;;;;;;;;;;5032308;28;20045;-85
2023/01/30 03:20:20;;;;;;;24.05;13.70;;;;;;;;;;5049128;28;20048;-84
2023/01/30 03:22:45;;;;;;;25.83;14.07;;;;;;;;;;5041503;28;20281;-84
2023/01/30 03:25:12;;;;;;;24.52;13.52;;;;;;;;;;5031399;28;20047;-83
2023/01/30 03:27:38;;;;;;;24.23;14.73;;;;;;;;;;5033321;28;20515;-85
2023/01/30 03:30:03;;;;;;;24.88;14.75;;;;;;;;;;5036929;28;20041;-85
2023/01/30 03:32:28;;;;;;;24.85;14.95;;;;;;;;;;5026724;28;20396;-83
2023/01/30 03:34:53;;;;;;;26.40;15.07;;;;;;;;;;5033837;28;20572;-83
2023/01/30 03:37:19;;;;;;;25.27;15.00;;;;;;;;;;5041025;28;20115;-84
2023/01/30 03:39:44;;;;;;;29.60;16.57;;;;;;;;;;5046646;28;20568;-84
2023/01/30 03:42:09;;;;;;;26.10;15.57;;;;;;;;;;5038600;28;20037;-85
2023/01/30 03:44:34;;;;;;;29.87;15.70;;;;;;;;;;5038701;28;20132;-83
2023/01/30 03:46:59;;;;;;;28.00;16.17;;;;;;;;;;5027981;28;20507;-85
2023/01/30 03:49:25;;;;;;;26.67;15.47;;;;;;;;;;5046213;28;20042;-84
2023/01/30 03:51:50;;;;;;;27.50;15.85;;;;;;;;;;5033814;28;20355;-85
2023/01/30 03:54:15;;;;;;;27.87;16.10;;;;;;;;;;5028964;28;20067;-84
2023/01/30 03:56:40;;;;;;;27.47;15.90;;;;;;;;;;5030521;28;20033;-84
2023/01/30 03:59:06;;;;;;;27.60;14.93;;;;;;;;;;5038837;28;20179;-84
2023/01/30 04:01:32;;;;;;;25.83;15.40;;;;;;;;;;5047645;28;20647;-84
2023/01/30 04:03:57;;;;;;;27.30;15.70;;;;;;;;;;5036452;28;20033;-84
2023/01/30 04:06:22;;;;;;;25.90;15.23;;;;;;;;;;5036988;28;20638;-83
2023/01/30 04:08:50;;;;;;;25.47;17.30;;;;;;;;;;5033960;28;20433;-83
2023/01/30 04:11:15;;;;;;;25.90;17.35;;;;;;;;;;5037671;28;20425;-84
2023/01/30 04:13:41;;;;;;;26.33;15.87;;;;;;;;;;5036869;28;20037;-83
2023/01/30 04:16:13;;;;;;;27.90;16.13;;;;;;;;;;5042434;28;20037;-83
2023/01/30 04:18:38;;;;;;;28.25;15.57;;;;;;;;;;5026320;28;20036;-85
2023/01/30 04:21:03;;;;;;;30.27;15.83;;;;;;;;;;5028618;28;20112;-85
2023/01/30 04:23:29;;;;;;;26.37;17.60;;;;;;;;;;5030244;28;20411;-85
2023/01/30 04:25:54;;;;;;;27.10;15.03;;;;;;;;;;5041455;28;20576;-84
2023/01/30 04:28:19;;;;;;;26.63;15.57;;;;;;;;;;5038468;28;20099;-85
2023/01/30 04:30:44;;;;;;;25.93;15.33;;;;;;;;;;5029027;28;20151;-83
2023/01/30 04:33:09;;;;;;;29.67;16.10;;;;;;;;;;5029578;28;20142;-84
2023/01/30 04:35:34;;;;;;;29.30;16.03;;;;;;;;;;5031385;28;20291;-84
2023/01/30 04:38:00;;;;;;;27.10;15.97;;;;;;;;;;5033007;28;20281;-84
2023/01/30 04:40:25;;;;;;;29.27;15.87;;;;;;;;;;5031168;28;20211;-84
2023/01/30 04:42:50;;;;;;;26.97;15.53;;;;;;;;;;5037956;28;20025;-83
2023/01/30 04:45:15;;;;;;;29.50;15.65;;;;;;;;;;5021019;28;20300;-85
2023/01/30 04:47:41;;;;;;;26.83;15.40;;;;;;;;;;5031911;28;20033;-83
2023/01/30 04:50:06;;;;;;;26.87;15.40;;;;;;;;;;5033956;28;20125;-83
2023/01/30 04:52:31;;;;;;;29.40;15.38;;;;;;;;;;5037562;28;20374;-84
2023/01/30 04:54:57;;;;;;;25.80;14.70;;;;;;;22.39;100.00;54079.50;5030281;28;20040;-84
2023/01/30 04:57:22;;;;;;;29.38;15.43;;;;;;;;;;5030365;28;20844;-84
2023/01/30 04:59:47;;;;;;;26.83;15.00;;;;;;;;;;5040465;28;20068;-84
2023/01/30 05:02:12;;;;;;;26.23;15.20;;;;;;;;;;5035673;28;20549;-84
2023/01/30 05:04:37;;;;;;;27.63;15.83;;;;;;;;;;5030552;28;20033;-82
2023/01/30 05:07:03;;;;;;;28.90;14.60;;;;;;;;;;5047301;28;20380;-84
2023/01/30 05:09:28;;;;;;;28.27;15.10;;;;;;;;;;5040967;28;20288;-84
2023/01/30 05:11:53;;;;;;;26.60;13.63;;;;;;;;;;5034815;28;20862;-84
2023/01/30 05:14:18;;;;;;;27.13;14.73;;;;;;;;;;5025736;28;20350;-84
2023/01/30 05:16:43;;;;;;;26.77;14.87;;;;;;;;;;5034640;28;20034;-84
2023/01/30 05:19:10;;;;;;;25.43;14.37;;;;;;;;;;5044112;28;20123;-85
2023/01/30 05:21:36;;;;;;;25.10;14.25;;;;;;;;;;5034522;28;20292;-85
2023/01/30 05:24:01;;;;;;;26.73;15.63;;;;;;;;;;5040374;28;20036;-84
2023/01/30 05:26:26;;;;;;;26.20;14.20;;;;;;;;;;5027207;28;20052;-85
2023/01/30 05:28:52;;;;;;;25.67;14.63;;;;;;;;;;5023804;28;20044;-85
2023/01/30 05:31:18;;;;;;;25.77;14.65;;;;;;;;;;5026064;28;20510;-85
2023/01/30 05:33:45;;;;;;;23.90;13.63;;;;;;;;;;5033603;28;20111;-85
2023/01/30 05:36:12;;;;;;;23.88;13.65;;;;;;;;;;5041790;28;20296;-84
2023/01/30 05:38:38;;;;;;;25.73;14.48;;;;;;;;;;5032833;28;20414;-84
2023/01/30 05:41:04;;;;;;;24.50;12.90;;;;;;;;;;5037928;28;20040;-83
2023/01/30 05:43:29;;;;;;;22.50;13.52;;;;;;;;;;5029266;28;20364;-84
2023/01/30 05:45:55;;;;;;;23.73;12.80;;;;;;;;;;5029463;28;20071;-83
2023/01/30 05:48:21;;;;;;;20.90;12.63;;;;;;;;;;5038474;28;20039;-84
2023/01/30 05:50:46;;;;;;;22.60;13.63;;;;;;;;;;5040430;28;20136;-84
2023/01/30 05:53:11;;;;;;;24.63;13.80;;;;;;;;;;5036492;28;20052;-83
2023/01/30 05:55:37;;;;;;;25.33;13.15;;;;;;;;;;5039454;28;20037;-84
2023/01/30 05:58:02;;;;;;;25.97;13.57;;;;;;;;;;5025696;28;20049;-84
2023/01/30 06:00:27;;;;;;;22.73;12.83;;;;;;;;;;5036268;28;20340;-84
2023/01/30 06:02:52;;;;;;;24.02;13.77;;;;;;;;;;5024059;28;20045;-84
2023/01/30 06:05:18;;;;;;;24.20;13.97;;;;;;;;;;5039284;28;20037;-84
2023/01/30 06:07:43;;;;;;;24.60;14.30;;;;;;;;;;5030030;28;20034;-84
2023/01/30 06:10:08;;;;;;;23.70;13.93;;;;;;;;;;5039852;28;20097;-84
2023/01/30 06:12:34;;;;;;;24.63;13.75;;;;;;;;;;5037452;28;20041;-84
2023/01/30 06:14:59;;;;;;;21.13;12.73;;;;;;;;;;5034212;28;20037;-84
2023/01/30 06:17:24;;;;;;;23.73;13.02;;;;;;;;;;5028933;28;20067;-84
2023/01/30 06:19:50;;;;;;;22.23;12.53;;;;;;;;;;5037501;28;20044;-84
2023/01/30 06:22:15;;;;;;;23.70;13.70;;;;;;;;;;5038547;28;20280;-85
2023/01/30 06:24:40;;;;;;;21.90;12.90;;;;;;;;;;5042203;28;20479;-85
2023/01/30 06:27:05;;;;;;;21.13;12.17;;;;;;;;;;5030298;28;20033;-85
2023/01/30 06:29:30;;;;;;;21.40;12.43;;;;;;;;;;5033360;28;20046;-85
2023/01/30 06:31:55;;;;;;;24.53;12.10;;;;;;;;;;5037253;28;20121;-85
2023/01/30 06:34:21;;;;;;;23.40;12.90;;;;;;;;;;5039743;28;20418;-85
2023/01/30 06:36:46;;;;;;;21.37;12.07;;;;;;;;;;5029137;28;20103;-85
2023/01/30 06:39:11;;;;;;;21.67;12.43;;;;;;;;;;5040725;28;20149;-85
2023/01/30 06:41:36;;;;;;;20.30;12.60;;;;;;;;;;5032188;28;20065;-85
2023/01/30 06:44:01;;;;;;;20.43;12.10;;;;;;;;;;5033096;28;20041;-85
2023/01/30 06:46:26;;;;;;;21.10;12.48;;;;;;;;;;5031129;28;20096;-85
2023/01/30 06:48:52;;;;;;;19.40;11.60;;;;;;;;;;5033205;28;20114;-85
2023/01/30 06:51:17;;;;;;;22.70;12.70;;;;;;;;;;5064737;28;20716;-85
2023/01/30 06:53:42;;;;;;;19.47;12.83;;;;;;;;;;5037243;28;20040;-86
2023/01/30 06:56:07;;;;;;;22.95;13.07;;;;;;;22.39;100.00;159851.34;5047212;23;20046;-83
2023/01/30 06:58:32;;;;;;;25.67;12.88;;;;;;;;;;5040003;28;20038;-82
2023/01/30 07:00:58;;;;;;;19.53;11.93;;;;;;;;;;5037793;28;20718;-82
2023/01/30 07:03:23;;;;;;;20.47;11.90;;;;;;;;;;5032693;28;20124;-81
2023/01/30 07:05:48;;;;;;;22.83;12.65;;;;;;;;;;5031527;28;20042;-82
2023/01/30 07:08:14;;;;;;;21.20;11.90;;;;;;;;;;5039297;28;20045;-82
2023/01/30 07:10:39;;;;;;;24.42;13.45;;;;;;;;;;5036064;28;20269;-82
2023/01/30 07:13:05;;;;;;;26.77;14.43;;;;;;;;;;5046923;28;20048;-82
2023/01/30 07:15:31;;;;;;;23.67;12.83;;;;;;;;;;5040723;28;20068;-83
2023/01/30 07:17:57;;;;;;;20.58;12.02;;;;;;;;;;5032512;28;20128;-82
2023/01/30 07:20:22;;;;;;;22.35;12.93;;;;;;;;;;5037870;28;20052;-84
2023/01/30 07:22:52;;;;;;;19.88;11.93;;;;;;;;;;5034399;28;20064;-83
2023/01/30 07:25:17;;;;;;;20.83;11.88;;;;;;;;;;5041555;28;20037;-84
2023/01/30 07:27:43;;;;;;;21.73;12.23;;;;;;;;;;5040304;28;20105;-84
2023/01/30 07:30:08;;;;;;;22.53;12.90;;;;;;;;;;5042686;28;20044;-82
2023/01/30 07:32:33;;;;;;;20.95;12.38;;;;;;;;;;5038672;28;20351;-83
2023/01/30 07:34:58;;;;;;;19.70;11.93;;;;;;;;;;5043864;28;20042;-82
2023/01/30 07:37:24;;;;;;;19.70;11.55;;;;;;;;;;5039837;28;20076;-82
2023/01/30 07:39:49;;;;;;;19.15;11.75;;;;;;;;;;5035626;28;20091;-81
2023/01/30 07:42:14;;;;;;;19.30;11.60;;;;;;;;;;5038766;28;20385;-83
2023/01/30 07:44:39;;;;;;;19.13;11.10;;;;;;;;;;5037958;28;20041;-83
2023/01/30 07:47:04;;;;;;;20.27;11.43;;;;;;;;;;5034340;28;20049;-82
2023/01/30 07:49:29;;;;;;;17.93;10.87;;;;;;;;;;5035849;28;20098;-82
2023/01/30 07:51:54;;;;;;;18.53;11.33;;;;;;;;;;5032996;28;20056;-85
2023/01/30 07:54:20;;;;;;;20.00;11.57;;;;;;;;;;5034021;28;20284;-84
2023/01/30 07:56:48;;;;;;;18.20;11.90;;;;;;;;;;5023554;28;20363;-84
2023/01/30 07:59:13;;;;;;;19.42;11.32;;;;;;;;;;5031886;28;20060;-83
2023/01/30 08:01:38;;;;;;;16.73;10.87;;;;;;;-145.28;100.00;71319.06;5030945;28;20034;-84
2023/01/30 08:04:04;;;;;;;21.58;12.32;;;;;;;;;;5036301;28;20287;-82
2023/01/30 08:06:29;;;;;;;19.30;11.40;;;;;;;22.38;100.00;54027.53;5036725;28;20049;-82
2023/01/30 08:08:55;;;;;;;19.42;12.10;;;;;;;;;;5038664;28;20276;-82
2023/01/30 08:11:26;;;;;;;22.00;12.10;;;;;;;;;;5035744;28;20037;-85
2023/01/30 08:13:51;;;;;;;19.20;11.30;;;;;;;;;;5063689;22;20253;-83
2023/01/30 08:16:25;;;;;;;17.77;11.43;;;;;;;;;;5039272;28;20057;-87
2023/01/30 08:18:53;;;;;;;22.42;12.13;;;;;;;;;;5041812;28;20037;-83
2023/01/30 08:21:18;;;;;;;19.65;12.13;;;;;;;;;;5020195;28;20063;-84
2023/01/30 08:23:43;;;;;;;17.77;11.10;;;;;;;;;;5049405;28;20033;-83
2023/01/30 08:26:09;;;;;;;18.73;10.88;;;;;;;;;;5046617;28;20068;-83
2023/01/30 08:28:34;;;;;;;18.77;11.85;;;;;;;;;;5040452;28;20025;-83
2023/01/30 08:30:59;;;;;;;17.67;11.20;;;;;;;;;;5048330;28;20061;-83
2023/01/30 08:33:25;;;;;;;17.80;11.47;;;;;;;;;;5034803;28;20037;-85
2023/01/30 08:35:50;;;;;;;20.70;12.48;;;;;;;;;;5039726;28;20038;-84
2023/01/30 08:38:15;;;;;;;18.80;11.43;;;;;;;;;;5045629;28;20064;-85
2023/01/30 08:40:40;;;;;;;18.03;11.20;;;;;;;;;;5047909;28;20334;-84
2023/01/30 08:43:06;;;;;;;17.80;10.77;;;;;;;;;;5049773;28;20034;-83
2023/01/30 08:45:31;;;;;;;20.63;12.13;;;;;;;;;;5040953;28;20311;-83
2023/01/30 08:48:00;;;;;;;19.05;11.50;;;;;;;;;;5023714;28;20034;-85
2023/01/30 08:50:25;;;;;;;17.60;11.10;;;;;;;;;;5037679;28;20119;-84
2023/01/30 08:52:50;;;;;;;20.15;12.48;;;;;;;;;;5040964;28;20033;-83
2023/01/30 08:55:17;;;;;;;18.70;12.07;;;;;;;;;;5048833;28;20041;-83
2023/01/30 08:57:42;;;;;;;18.13;11.38;;;;;;;;;;5041611;28;20284;-84
2023/01/30 09:00:07;;;;;;;19.33;11.73;;;;;;;;;;5031703;28;20041;-84
2023/01/30 09:02:33;;;;;;;19.45;11.68;;;;;;;;;;5040054;28;20277;-84
2023/01/30 09:04:58;;;;;;;19.63;12.13;;;;;;;;;;5036456;28;20038;-84
2023/01/30 09:07:23;;;;;;;20.00;11.53;;;;;;;;;;5052812;28;20048;-83
2023/01/30 09:09:48;;;;;;;18.23;11.63;;;;;;;;;;5046639;28;20470;-84
2023/01/30 09:12:14;;;;;;;20.97;11.80;;;;;;;;;;5053275;28;20040;-84
2023/01/30 09:14:41;;;;;;;18.53;11.27;;;;;;;;;;5056125;28;20455;-84
2023/01/30 09:17:06;;;;;;;19.45;11.75;;;;;;;;;;5037280;28;20092;-84
2023/01/30 09:19:32;;;;;;;20.33;12.23;;;;;;;;;;5049842;28;20041;-83
2023/01/30 09:21:57;;;;;;;20.00;11.88;;;;;;;;;;5056192;28;20029;-88
2023/01/30 09:24:25;;;;;;;17.90;11.03;;;;;;;;;;5038343;28;20113;-84
2023/01/30 09:26:57;;;;;;;20.30;12.10;;;;;;;;;;5039253;28;20421;-88
2023/01/30 09:29:22;;;;;;;19.27;11.30;;;;;;;;;;5046559;28;20102;-82
2023/01/30 09:31:48;;;;;;;18.27;12.07;;;;;;;;;;5043117;28;20069;-82
2023/01/30 09:34:13;;;;;;;17.60;11.25;;;;;;;;;;5043259;28;20300;-83
2023/01/30 09:39:46;;;;;;;17.30;10.70;;;;;;;;;;5045377;28;20435;-83
2023/01/30 09:42:30;;;;;;;17.55;10.95;;;;;;;;;;5041745;28;20274;-83
2023/01/30 09:45:25;;;;;;;20.00;11.52;;;;;;;22.38;100.00;159928.53;5057435;28;20026;-84
2023/01/30 09:48:08;;;;;;;18.25;10.95;;;;;;;;;;5038945;28;20037;-82
2023/01/30 09:50:33;;;;;;;17.88;11.15;;;;;;;;;;5030338;28;20042;-82
2023/01/30 09:53:11;;;;;;;20.23;11.20;;;;;;;;;;5035761;28;20346;-82
2023/01/30 09:55:37;;;;;;;17.75;10.93;;;;;;;;;;5041071;28;20296;-83
2023/01/30 09:58:02;;;;;;;15.77;11.40;;;;;;;;;;5044296;28;20421;-82
2023/01/30 10:00:38;;;;;;;17.73;11.07;;;;;;;;;;5037871;28;20113;-83
2023/01/30 10:03:11;;;;;;;16.58;10.85;;;;;;;;;;5026226;28;20072;-83
2023/01/30 10:05:36;;;;;;;17.42;10.80;;;;;;;;;;5032719;28;20034;-82
2023/01/30 10:08:20;;;;;;;18.95;11.23;;;;;;;;;;5043035;28;20116;-83
2023/01/30 10:11:08;;;;;;;18.70;10.85;;;;;;;;;;5038501;28;20151;-85
2023/01/30 10:13:42;;;;;;;17.02;11.50;;;;;;;;;;5038303;28;20037;-84
2023/01/30 10:16:20;;;;;;;17.45;10.80;;;;;;;;;;5036445;28;20075;-82
2023/01/30 10:18:52;;;;;;;18.02;10.10;;;;;;;;;;5043815;28;20053;-85
2023/01/30 10:21:33;;;;;;;16.17;9.90;;;;;;;;;;5044934;28;20051;-88
2023/01/30 10:24:07;;;;;;;17.50;10.80;;;;;;;;;;5038016;28;20045;-87
2023/01/30 10:26:33;;;;;;;16.05;9.50;;;;;;;;;;5034190;28;20033;-79
2023/01/30 10:29:01;;;;;;;15.88;9.90;;;;;;;;;;5035692;28;20038;-81
2023/01/30 10:31:33;;;;;;;13.38;8.63;;;;;;;;;;5036711;28;20620;-80
2023/01/30 10:34:25;;;;;;;12.13;7.68;;;;;;;;;;5041327;28;20467;-81
2023/01/30 10:36:57;;;;;;;12.93;8.50;;;;;;;;;;5048192;28;20503;-82
2023/01/30 10:39:41;;;;;;;13.32;8.55;;;;;;;;;;5022124;28;20030;-82
2023/01/30 10:42:18;;;;;;;12.75;8.25;;;;;;;;;;5053392;28;20036;-81
2023/01/30 10:44:44;;;;;;;13.05;7.95;;;;;;;;;;5038319;28;20037;-81
2023/01/30 10:47:18;;;;;;;14.63;9.80;;;;;;;;;;5038647;28;20571;-83
2023/01/30 10:49:45;;;;;;;15.65;9.20;;;;;;;;;;5040307;28;20101;-82
2023/01/30 10:52:34;;;;;;;13.35;8.93;;;;;;;;;;5036990;28;20083;-80
2023/01/30 10:55:04;;;;;;;15.32;9.13;;;;;;;;;;5028655;28;20037;-84
2023/01/30 10:57:44;;;;;;;14.88;9.02;;;;;;;;;;5047928;28;20036;-82
2023/01/30 11:00:32;;;;;;;14.93;8.88;;;;;;;;;;5029894;28;20176;-84
2023/01/30 11:02:58;;;;;;;12.50;8.40;;;;;;;;;;5055355;28;20044;-82
2023/01/30 11:05:26;;;;;;;14.88;8.77;;;;;;;;;;5042156;28;20037;-83
2023/01/30 11:07:51;;;;;;;15.25;8.95;;;;;;;;;;5033487;28;20124;-80
2023/01/30 11:10:17;;;;;;;13.88;9.18;;;;;;;;;;5036020;28;20041;-80
2023/01/30 11:12:43;;;;;;;14.07;9.25;;;;;;;;;;5037800;28;20036;-79
2023/01/30 11:15:09;;;;;;;14.07;8.47;;;;;;;;;;5040461;28;20112;-79
2023/01/30 11:17:35;;;;;;;14.07;9.25;;;;;;;;;;5043183;28;20316;-81
2023/01/30 11:20:05;;;;;;;14.80;8.60;;;;;;;;;;5036395;28;20057;-80
2023/01/30 11:22:33;;;;;;;14.07;9.10;;;;;;;;;;5036725;28;20034;-81
2023/01/30 11:25:09;;;;;;;12.75;8.30;;;;;;;;;;5037818;28;20038;-80
2023/01/30 11:27:34;;;;;;;13.38;8.60;;;;;;;;;;5037222;28;20049;-80
2023/01/30 11:30:12;;;;;;;12.82;8.10;;;;;;;;;;5036946;28;20477;-81
2023/01/30 11:32:37;;;;;;;;;;;;;;;;;;5036823;28;20033;-80
2023/01/30 11:35:02;;;;;;;11.00;7.55;;;;;;;;;;5030275;28;19913;-80
2023/01/30 11:37:41;;;;;;;10.93;7.27;;;;;;;;;;5028891;28;20524;-82
2023/01/30 11:40:26;;;;;;;11.27;7.22;;;;;;;;;;5048443;28;20628;-81
2023/01/30 11:43:03;;;;;;;9.88;6.63;;;;;;;;;;5055884;28;20056;-81
2023/01/30 11:45:29;;;;;;;8.82;5.50;;;;;;;;;;5032980;28;20497;-86
2023/01/30 11:48:03;;;;;;;7.90;5.13;;;;;;;;;;5035177;28;20041;-80
2023/01/30 11:50:31;;;;;;;6.47;4.40;;;;;;;;;;5034121;28;20509;-78
2023/01/30 11:53:01;;;;;;;6.60;4.65;;;;;;;;;;5039442;28;20034;-78
2023/01/30 11:55:26;;;;;;;7.10;4.72;;;;;;;;;;5037606;28;20038;-79
2023/01/30 11:57:53;;;;;;;6.72;4.60;;;;;;;;;;5046984;28;20029;-79
2023/01/30 12:00:18;;;;;;;5.88;4.13;;;;;;;;;;5042606;28;20029;-78
2023/01/30 12:02:45;;;;;;;5.82;3.72;;;;;;;;;;5050209;28;20034;-78
2023/01/30 12:05:41;;;;;;;6.90;4.60;;;;;;;;;;5039808;28;20106;-81
2023/01/30 12:08:18;;;;;;;6.20;4.00;;;;;;;;;;5028024;28;20037;-81
2023/01/30 12:10:45;;;;;;;6.55;4.72;;;;;;;;;;5068382;28;20045;-79
2023/01/30 12:13:33;;;;;;;9.45;4.07;;;;;;;;;;5036511;28;20072;-83
2023/01/30 12:16:11;;;;;;;5.78;4.00;;;;;;;;;;5033937;28;20034;-79
2023/01/30 12:18:46;;;;;;;5.63;4.07;;;;;;;;;;5050305;28;20083;-80
2023/01/30 12:21:29;;;;;;;5.63;3.95;;;;;;;;;;5041098;28;20061;-85
2023/01/30 12:24:03;;;;;;;5.38;3.92;;;;;;;;;;5037465;28;20041;-83
2023/01/30 12:26:28;;;;;;;7.80;4.20;;;;;;;;;;5015503;28;20065;-79
2023/01/30 12:29:12;;;;;;;6.35;3.95;;;;;;;;;;5039230;28;20038;-78
2023/01/30 12:31:42;;;;;;;7.07;4.47;;;;;;;;;;5045524;28;20452;-77
2023/01/30 12:34:08;;;;;;;8.63;4.85;;;;;;;;;;5047421;28;20056;-79
2023/01/30 12:36:52;;;;;;;7.40;4.47;;;;;;;;;;5036212;28;20037;-79
2023/01/30 12:39:28;;;;;;;6.30;4.35;;;;;;;;;;5053525;28;20509;-79
2023/01/30 12:42:09;;;;;;;7.47;5.05;;;;;;;;;;5042770;28;20063;-78
2023/01/30 12:44:59;;;;;;;7.75;5.13;;;;;;;;;;5030250;28;20060;-79
2023/01/30 12:47:33;;;;;;;6.60;4.25;;;;;;;;;;5050766;28;20053;-79
2023/01/30 12:50:20;;;;;;;10.52;5.30;;;;;;;;;;5030920;28;20041;-79
2023/01/30 12:52:51;;;;;;;9.07;4.75;;;;;;;;;;5038348;28;20041;-79
2023/01/30 12:55:37;;;;;;;7.35;4.90;;;;;;;;;;5038936;28;20048;-80
2023/01/30 12:58:14;;;;;;;6.93;4.45;;;;;;;;;;5047569;28;20033;-82
2023/01/30 13:00:42;;;;;;;6.47;4.60;;;;;;;;;;5035548;28;20029;-79
2023/01/30 13:03:17;;;;;;;6.28;4.53;;;;;;;;;;5032647;28;20107;-80
2023/01/30 13:05:59;;;;;;;6.25;4.32;;;;;;;;;;5034202;28;20037;-79
2023/01/30 13:08:37;;;;;;;5.95;4.35;;;;;;;;;;5034901;28;20473;-81
2023/01/30 13:11:07;;;;;;;6.03;4.13;;;;;;;;;;5033149;28;20126;-79
2023/01/30 13:13:41;;;;;;;5.93;4.25;;;;;;;;;;5049123;28;20091;-80
2023/01/30 13:16:31;;;;;;;6.07;4.30;;;;;;;;;;5034193;28;20409;-80
2023/01/30 13:19:25;;;;;;;6.97;4.63;;;;;;;;;;5020681;28;20037;-81
2023/01/30 13:21:55;;;;;;;6.40;4.70;;;;;;;;;;5038907;28;20037;-80
2023/01/30 13:24:39;;;;;;;7.35;4.72;;;;;;;;;;5025087;28;20095;-81
2023/01/30 13:27:08;;;;;;;7.18;4.43;;;;;;;;;;5034767;28;20033;-80
2023/01/30 13:29:38;;;;;;;6.95;4.43;;;;;;;;;;5037213;28;20049;-79
2023/01/30 13:32:31;;;;;;;8.48;3.95;;;;;;;;;;5040686;28;20061;-82
2023/01/30 13:34:58;;;;;;;7.05;4.30;;;;;;;;;;5045185;28;20068;-80
2023/01/30 13:37:23;;;;;;;5.28;3.72;;;;;;;;;;5039023;28;20064;-80
2023/01/30 13:39:54;;;;;;;4.93;3.73;;;;;;;;;;5031392;28;20038;-80
2023/01/30 13:42:19;;;;;;;;;;;;;;;;;;5043582;28;20046;-80
2023/01/30 13:44:45;;;;;;;5.57;4.00;;;;;;;;;;5040304;28;20327;-80
2023/01/30 13:47:30;;;;;;;6.53;3.80;;;;;;;;;;5030972;28;20064;-80
2023/01/30 13:49:55;;;;;;;5.10;3.60;;;;;;;;;;5051612;28;20045;-80
2023/01/30 13:52:53;;;;;;;5.20;3.67;;;;;;;;;;5035913;28;20057;-80
2023/01/30 13:55:24;;;;;;;5.40;3.90;;;;;;;;;;5029230;28;20033;-80
2023/01/30 13:57:54;;;;;;;4.25;3.28;;;;;;;;;;5036184;28;20611;-80
2023/01/30 14:00:34;;;;;;;4.85;3.60;;;;;;;;;;5056618;28;20029;-80
2023/01/30 14:03:02;;;;;;;4.23;3.47;;;;;;;22.42;100.00;54012.06;5053986;28;20068;-80
2023/01/30 14:05:46;;;;;;;5.65;3.85;;;;;;;;;;5020225;28;20037;-80
2023/01/30 14:08:16;;;;;;;5.32;3.75;;;;;;;;;;5050541;28;20044;-80
2023/01/30 14:10:41;;;;;;;7.25;4.43;;;;;;;;;;5039508;28;20042;-81
2023/01/30 14:13:07;;;;;;;4.95;3.65;;;;;;;;;;5035223;28;20420;-81
2023/01/30 14:15:32;;;;;;;5.75;3.88;;;;;;;;;;5055351;28;20040;-79
2023/01/30 14:18:00;;;;;;;5.55;3.80;;;;;;;;;;5035707;28;20037;-80
2023/01/30 14:20:56;;;;;;;5.38;3.70;;;;;;;;;;5032166;28;20533;-80
2023/01/30 14:23:30;;;;;;;5.05;3.40;;;;;;;;;;5026156;28;20061;-80
2023/01/30 14:25:56;;;;;;;5.82;3.42;;;;;;;;;;5035438;28;20124;-80
2023/01/30 14:28:21;;;;;;;4.82;3.50;;;;;;;;;;5033774;28;20119;-80
2023/01/30 14:30:48;;;;;;;6.22;3.63;;;;;;;;;;5034843;28;20037;-80
2023/01/30 14:33:19;;;;;;;7.25;4.78;;;;;;;;;;5036569;28;20029;-79
2023/01/30 14:35:45;;;;;;;6.47;4.18;;;;;;;;;;5039858;28;20044;-79
2023/01/30 14:38:18;;;;;;;4.97;3.63;;;;;;;-145.28;0.00;65941.84;5029247;28;20489;-80